Time;durP1;ratioP1;P1;durP2;ratioP2;P2;SDS_P1;SDS_P2;PMS_P1;PMS_P2;Temp;Humidity;BMP_temperature;BMP_pressure;BME280_temperature;BME280_humidity;BME280_pressure;Samples;Min_cycle;Max_cycle;Signal;HPM_P1;HPM_P2
2021/09/22 00:00:51;;;;;;;19.27;14.30;;;11.90;99.90;;;;;;5095416;28;20047;-63
2021/09/22 00:03:16;;;;;;;20.42;14.45;;;11.90;99.90;;;;;;5088903;28;20523;-63
2021/09/22 00:05:42;;;;;;;17.13;14.00;;;11.90;99.90;;;;;;5100527;28;20054;-63
2021/09/22 00:08:08;;;;;;;19.50;15.10;;;11.90;99.90;;;;;;5094721;28;20166;-63
2021/09/22 00:10:34;;;;;;;20.25;15.48;;;11.90;99.90;;;;;;5102230;28;20487;-63
2021/09/22 00:13:00;;;;;;;20.40;15.43;;;11.80;99.90;;;;;;5098635;28;20052;-63
2021/09/22 00:15:26;;;;;;;127.60;18.05;;;11.80;99.90;;;;;;5100395;28;20162;-63
2021/09/22 00:17:52;;;;;;;157.38;18.15;;;11.70;99.90;;;;;;5095904;28;20070;-63
2021/09/22 00:20:23;;;;;;;41.15;16.00;;;11.50;99.90;;;;;;5097837;28;20123;-63
2021/09/22 00:22:49;;;;;;;36.38;17.38;;;11.50;99.90;;;;;;5097070;28;20109;-63
2021/09/22 00:25:15;;;;;;;25.83;17.58;;;11.40;99.90;;;;;;5089622;28;20056;-63
2021/09/22 00:27:42;;;;;;;27.13;17.63;;;11.40;99.90;;;;;;5093561;28;20075;-62
2021/09/22 00:30:11;;;;;;;25.48;18.77;;;11.40;99.90;;;;;;5098331;28;20055;-63
2021/09/22 00:32:38;;;;;;;25.67;19.05;;;11.40;99.90;;;;;;5096557;28;20040;-62
2021/09/22 00:35:05;;;;;;;29.65;19.58;;;11.40;99.90;;;;;;5093211;28;20062;-63
2021/09/22 00:37:31;;;;;;;30.85;20.23;;;11.40;99.90;;;;;;5094100;28;20045;-63
2021/09/22 00:39:57;;;;;;;28.73;19.83;;;11.50;99.90;;;;;;5101116;28;20066;-63
2021/09/22 00:42:22;;;;;;;29.98;20.08;;;11.50;99.90;;;;;;5101406;28;20040;-63
2021/09/22 00:45:02;;;;;;;27.52;18.60;;;11.50;99.90;;;;;;5099508;28;20068;-63
2021/09/22 00:47:29;;;;;;;31.35;20.08;;;11.40;99.90;;;;;;5105443;28;20047;-63
2021/09/22 00:49:55;;;;;;;28.23;19.42;;;11.40;99.90;;;;;;5116307;28;20060;-63
2021/09/22 00:52:22;;;;;;;30.40;19.92;;;11.40;99.90;;;;;;5103395;28;20048;-63
2021/09/22 00:54:49;;;;;;;25.77;18.38;;;11.40;99.90;;;;;;5102705;28;20049;-62
2021/09/22 00:57:16;;;;;;;26.05;18.00;;;11.40;99.90;;;;;;5106396;28;20048;-63
2021/09/22 00:59:43;;;;;;;29.10;19.85;;;11.30;99.90;;;;;;5100207;28;20048;-63
2021/09/22 01:02:09;;;;;;;27.05;19.25;;;11.30;99.90;;;;;;5105278;28;20525;-63
2021/09/22 01:04:35;;;;;;;31.67;20.77;;;11.30;99.90;;;;;;5098949;28;20040;-63
2021/09/22 01:07:03;;;;;;;29.50;18.83;;;11.30;99.90;;;;;;5100667;28;20120;-63
2021/09/22 01:09:29;;;;;;;29.20;20.40;;;11.30;99.90;;;;;;5096855;28;20050;-63
2021/09/22 01:11:55;;;;;;;29.08;19.70;;;11.40;99.90;;;;;;5092395;28;20044;-63
2021/09/22 01:14:25;;;;;;;24.27;17.80;;;11.50;99.90;;;;;;5100348;28;20043;-63
2021/09/22 01:16:51;;;;;;;;;;;11.40;99.90;;;;;;5103145;28;20869;-63
2021/09/22 01:19:19;;;;;;;27.33;18.27;;;11.40;99.90;;;;;;5098136;28;20015;-63
2021/09/22 01:21:49;;;;;;;53.38;18.65;;;11.30;99.90;;;;;;5101135;28;20098;-63
2021/09/22 01:24:15;;;;;;;58.97;19.95;;;11.30;99.90;;;;;;5095100;28;20048;-63
2021/09/22 01:26:42;;;;;;;77.07;20.55;;;11.30;99.90;;;;;;5095945;28;20108;-63
2021/09/22 01:29:08;;;;;;;80.38;19.63;;;11.30;99.90;;;;;;5102201;28;20082;-63
2021/09/22 01:31:36;;;;;;;85.55;18.45;;;11.20;99.90;;;;;;5100969;28;20048;-63
2021/09/22 01:34:03;;;;;;;48.85;18.13;;;11.20;99.90;;;;;;5102268;28;20048;-63
2021/09/22 01:36:29;;;;;;;25.13;18.02;;;11.20;99.90;;;;;;5100065;28;20124;-62
2021/09/22 01:38:55;;;;;;;62.75;17.17;;;11.20;99.90;;;;;;5104820;28;20044;-62
2021/09/22 01:41:21;;;;;;;23.05;17.85;;;11.20;99.90;;;;;;5103306;28;20044;-63
2021/09/22 01:43:47;;;;;;;26.02;18.33;;;11.20;99.90;;;;;;5102731;28;20495;-63
2021/09/22 01:46:12;;;;;;;23.88;17.60;;;11.30;99.90;;;;;;5099382;27;20048;-63
2021/09/22 01:48:39;;;;;;;34.10;17.48;;;11.40;99.90;;;;;;5099376;28;20100;-62
2021/09/22 01:51:08;;;;;;;95.68;20.67;;;11.40;99.90;;;;;;5102797;28;20456;-62
2021/09/22 01:53:35;;;;;;;181.13;21.45;;;11.40;99.90;;;;;;5102212;28;20035;-63
2021/09/22 01:56:02;;;;;;;25.48;18.10;;;11.30;99.90;;;;;;5103974;28;20069;-62
2021/09/22 01:58:29;;;;;;;26.75;17.83;;;11.40;99.90;;;;;;5103632;28;20050;-62
2021/09/22 02:00:57;;;;;;;24.45;18.45;;;11.40;99.90;;;;;;5095239;28;20048;-63
2021/09/22 02:03:23;;;;;;;135.77;21.30;;;11.50;99.90;;;;;;5093213;28;20045;-62
2021/09/22 02:05:49;;;;;;;236.93;23.88;;;11.50;99.90;;;;;;5099350;28;20048;-62
2021/09/22 02:08:15;;;;;;;284.30;24.27;;;11.40;99.90;;;;;;5103378;28;20360;-63
2021/09/22 02:10:41;;;;;;;189.93;22.67;;;11.30;99.90;;;;;;5104832;28;20076;-63
2021/09/22 02:13:07;;;;;;;263.77;25.65;;;11.20;99.90;;;;;;5101339;28;20048;-63
2021/09/22 02:15:33;;;;;;;216.15;22.23;;;11.20;99.90;;;;;;5103419;28;20044;-63
2021/09/22 02:18:00;;;;;;;51.10;17.33;;;11.10;99.90;;;;;;5097304;28;20044;-63
2021/09/22 02:20:26;;;;;;;150.27;20.95;;;11.20;99.90;;;;;;5100956;28;20654;-63
2021/09/22 02:22:52;;;;;;;205.13;23.35;;;11.20;99.90;;;;;;5097202;28;20074;-62
2021/09/22 02:25:19;;;;;;;327.67;26.40;;;11.10;99.90;;;;;;5096905;28;20070;-62
2021/09/22 02:27:45;;;;;;;238.50;22.75;;;11.10;99.90;;;;;;5094498;28;20059;-63
2021/09/22 02:30:15;;;;;;;243.85;24.38;;;11.10;99.90;;;;;;5119308;28;20097;-63
2021/09/22 02:32:41;;;;;;;289.75;25.52;;;11.00;99.90;;;;;;5096549;28;20048;-63
2021/09/22 02:35:09;;;;;;;207.30;23.98;;;11.00;99.90;;;;;;5106121;28;20051;-63
2021/09/22 02:37:35;;;;;;;160.27;22.02;;;10.90;99.90;;;;;;5105071;28;20131;-63
2021/09/22 02:40:02;;;;;;;195.27;22.85;;;10.90;99.90;;;;;;5099624;28;20047;-62
2021/09/22 02:42:28;;;;;;;117.53;20.75;;;10.80;99.90;;;;;;5100369;28;20067;-62
2021/09/22 02:44:54;;;;;;;124.35;21.75;;;10.80;99.90;;;;;;5102898;28;20094;-63
2021/09/22 02:47:20;;;;;;;179.98;23.88;;;10.80;99.90;;;;;;5095318;28;20083;-62
2021/09/22 02:49:46;;;;;;;152.25;23.23;;;10.80;99.90;;;;;;5102555;28;20052;-63
2021/09/22 02:52:13;;;;;;;106.60;21.50;;;10.80;99.90;;;;;;5100861;28;20036;-62
2021/09/22 02:54:39;;;;;;;116.05;21.98;;;10.80;99.90;;;;;;5104397;28;20036;-63
2021/09/22 02:57:05;;;;;;;98.50;20.77;;;10.80;99.90;;;;;;5102014;28;20128;-63
2021/09/22 02:59:31;;;;;;;117.68;22.35;;;10.80;99.90;;;;;;5103595;28;20032;-62
2021/09/22 03:01:57;;;;;;;156.60;22.15;;;10.80;99.90;;;;;;5101609;28;20046;-62
2021/09/22 03:04:22;;;;;;;125.03;22.25;;;10.80;99.90;;;;;;5090517;28;20040;-62
2021/09/22 03:06:48;;;;;;;189.60;23.63;;;10.80;99.90;;;;;;5098896;28;20052;-62
2021/09/22 03:09:14;;;;;;;222.10;27.13;;;10.80;99.90;;;;;;5105028;28;20056;-62
2021/09/22 03:11:40;;;;;;;133.68;24.30;;;10.80;99.90;;;;;;5101476;28;20074;-62
2021/09/22 03:14:06;;;;;;;230.10;27.52;;;10.80;99.90;;;;;;5098904;28;20589;-62
2021/09/22 03:16:32;;;;;;;187.68;25.95;;;10.80;99.90;;;;;;5099113;28;20036;-62
2021/09/22 03:19:02;;;;;;;286.70;29.50;;;10.90;99.90;;;;;;5099973;28;20180;-63
2021/09/22 03:21:29;;;;;;;117.90;23.20;;;10.80;99.90;;;;;;5099911;28;20047;-62
2021/09/22 03:23:55;;;;;;;209.75;29.23;;;10.90;99.90;;;;;;5101068;28;20093;-62
2021/09/22 03:26:22;;;;;;;160.85;24.90;;;10.90;99.90;;;;;;5131482;27;20066;-62
2021/09/22 03:28:48;;;;;;;215.05;29.10;;;10.90;99.90;;;;;;5094593;28;20041;-62
2021/09/22 03:31:14;;;;;;;198.48;25.95;;;10.90;99.90;;;;;;5096641;28;20078;-62
2021/09/22 03:33:40;;;;;;;140.93;24.55;;;10.90;99.90;;;;;;5098488;28;20052;-63
2021/09/22 03:36:06;;;;;;;208.55;28.48;;;10.90;99.90;;;;;;5101989;28;20054;-62
2021/09/22 03:38:32;;;;;;;246.10;29.20;;;10.80;99.90;;;;;;5099936;28;20036;-63
2021/09/22 03:40:59;;;;;;;125.55;25.35;;;10.90;99.90;;;;;;5094904;28;20074;-62
2021/09/22 03:43:25;;;;;;;126.03;25.60;;;10.90;99.90;;;;;;5097145;28;20048;-63
2021/09/22 03:45:51;;;;;;;86.97;23.67;;;11.00;99.90;;;;;;5100385;28;20048;-63
2021/09/22 03:48:17;;;;;;;74.45;24.50;;;10.90;99.90;;;;;;5097121;28;20476;-63
2021/09/22 03:50:47;;;;;;;67.03;23.45;;;11.00;99.90;;;;;;5102167;28;20056;-62
2021/09/22 03:53:15;;;;;;;45.55;24.30;;;11.00;99.90;;;;;;5103077;28;20052;-62
2021/09/22 03:55:43;;;;;;;45.28;26.27;;;11.10;99.90;;;;;;5095441;28;20074;-62
2021/09/22 03:58:08;;;;;;;36.95;22.17;;;11.10;99.90;;;;;;5096424;28;20105;-62
2021/09/22 04:00:34;;;;;;;27.23;20.85;;;11.10;99.90;;;;;;5101481;28;20044;-62
2021/09/22 04:03:00;;;;;;;31.88;22.80;;;11.10;99.90;;;;;;5092783;28;20032;-62
2021/09/22 04:05:25;;;;;;;29.23;23.00;;;11.20;99.90;;;;;;5097050;28;20044;-62
2021/09/22 04:07:51;;;;;;;27.30;21.38;;;11.20;99.90;;;;;;5095443;28;20044;-62
2021/09/22 04:10:17;;;;;;;27.33;21.90;;;11.20;99.90;;;;;;5101580;28;20040;-62
2021/09/22 04:12:43;;;;;;;29.10;23.42;;;11.20;99.90;;;;;;5097233;28;20052;-62
2021/09/22 04:15:09;;;;;;;32.35;23.75;;;11.20;99.90;;;;;;5096697;28;20044;-63
2021/09/22 04:17:35;;;;;;;29.88;23.38;;;11.30;99.90;;;;;;5084673;28;20067;-62
2021/09/22 04:20:01;;;;;;;31.20;23.95;;;11.30;99.90;;;;;;5106504;28;20100;-63
2021/09/22 04:22:26;;;;;;;31.02;23.00;;;11.30;99.90;;;;;;5100388;28;20077;-62
2021/09/22 04:24:52;;;;;;;30.67;24.13;;;11.30;99.90;;;;;;5103207;28;20084;-62
2021/09/22 04:27:18;;;;;;;33.58;24.58;;;11.40;99.90;;;;;;5098787;28;20024;-62
2021/09/22 04:29:43;;;;;;;31.60;23.15;;;11.40;99.90;;;;;;5102875;28;20063;-62
2021/09/22 04:32:09;;;;;;;33.55;24.73;;;11.30;99.90;;;;;;5104829;28;20039;-63
2021/09/22 04:34:36;;;;;;;33.03;24.90;;;11.40;99.90;;;;;;5088147;28;20060;-63
2021/09/22 04:37:02;;;;;;;33.67;25.42;;;11.40;99.90;;;;;;5092238;28;20076;-62
2021/09/22 04:39:28;;;;;;;34.15;25.65;;;11.40;99.90;;;;;;5103647;28;20076;-62
2021/09/22 04:41:53;;;;;;;35.15;25.88;;;11.40;99.90;;;;;;5099602;28;20047;-63
2021/09/22 04:44:19;;;;;;;35.05;25.83;;;11.40;99.90;;;;;;5100846;28;20074;-62
2021/09/22 04:46:45;;;;;;;43.45;26.85;;;11.40;99.90;;;;;;5105669;28;20084;-63
2021/09/22 04:49:11;;;;;;;43.53;26.48;;;11.40;99.90;;;;;;5088769;28;20055;-63
2021/09/22 04:51:36;;;;;;;60.83;29.05;;;11.40;99.90;;;;;;5100368;28;20063;-63
2021/09/22 04:54:02;;;;;;;63.67;28.60;;;11.40;99.90;;;;;;5102765;28;20096;-62
2021/09/22 04:56:28;;;;;;;67.60;26.48;;;11.40;99.90;;;;;;5099765;28;20045;-63
2021/09/22 04:58:53;;;;;;;103.88;28.73;;;11.30;99.90;;;;;;5103649;28;20043;-63
2021/09/22 05:01:19;;;;;;;55.15;25.55;;;11.30;99.90;;;;;;5096694;28;20066;-62
2021/09/22 05:03:45;;;;;;;78.70;28.25;;;11.20;99.90;;;;;;5101022;28;20044;-62
2021/09/22 05:06:11;;;;;;;80.80;27.45;;;11.20;99.90;;;;;;5078475;28;20052;-63
2021/09/22 05:08:36;;;;;;;96.25;30.02;;;11.10;99.90;;;;;;5103473;28;20056;-64
2021/09/22 05:11:02;;;;;;;74.88;26.90;;;11.10;99.90;;;;;;5089634;27;20054;-64
2021/09/22 05:13:28;;;;;;;115.97;30.58;;;11.00;99.90;;;;;;5109725;27;20274;-64
2021/09/22 05:15:53;;;;;;;73.00;27.65;;;11.00;99.90;;;;;;5108783;27;20089;-64
2021/09/22 05:18:19;;;;;;;140.48;30.40;;;11.00;99.90;;;;;;5117961;27;20093;-61
2021/09/22 05:20:45;;;;;;;111.70;29.67;;;11.00;99.90;;;;;;5124039;27;20040;-65
2021/09/22 05:23:11;;;;;;;92.97;28.25;;;11.00;99.90;;;;;;5095669;27;20078;-64
2021/09/22 05:25:37;;;;;;;95.25;28.42;;;10.90;99.90;;;;;;5119376;27;20044;-64
2021/09/22 05:28:03;;;;;;;85.97;26.85;;;10.90;99.90;;;;;;5091924;27;20039;-64
2021/09/22 05:30:29;;;;;;;165.32;30.85;;;10.90;99.90;;;;;;5105356;28;20047;-64
2021/09/22 05:32:55;;;;;;;143.75;31.17;;;10.80;99.90;;;;;;5093982;28;20097;-63
2021/09/22 05:35:20;;;;;;;124.32;29.45;;;10.80;99.90;;;;;;5090106;28;20055;-64
2021/09/22 05:37:46;;;;;;;134.60;31.02;;;10.70;99.90;;;;;;5099673;28;20044;-64
2021/09/22 05:40:12;;;;;;;108.25;28.90;;;10.70;99.90;;;;;;5119134;27;20056;-64
2021/09/22 05:42:38;;;;;;;108.07;29.50;;;10.70;99.90;;;;;;5099073;28;20043;-64
2021/09/22 05:45:04;;;;;;;173.35;33.83;;;10.70;99.90;;;;;;5084160;27;20043;-64
2021/09/22 05:47:30;;;;;;;162.32;34.63;;;10.70;99.90;;;;;;5097110;28;20047;-65
2021/09/22 05:49:56;;;;;;;128.43;31.27;;;10.70;99.90;;;;;;5117696;27;20147;-65
2021/09/22 05:52:21;;;;;;;215.25;37.30;;;10.70;99.90;;;;;;5083600;28;20047;-64
2021/09/22 05:54:48;;;;;;;171.25;35.85;;;10.70;99.90;;;;;;5086906;27;20047;-63
2021/09/22 05:57:15;;;;;;;192.80;37.33;;;10.70;99.90;;;;;;5100548;27;20043;-64
2021/09/22 05:59:40;;;;;;;173.27;36.70;;;10.70;99.90;;;;;;5111352;27;20131;-64
2021/09/22 06:02:09;;;;;;;185.85;36.83;;;10.80;99.90;;;;;;5099145;28;20059;-64
2021/09/22 06:04:34;;;;;;;234.45;40.03;;;10.90;99.90;;;;;;5101397;27;20055;-64
2021/09/22 06:07:00;;;;;;;156.05;37.00;;;10.90;99.90;;;;;;5077168;27;20127;-64
2021/09/22 06:09:26;;;;;;;156.68;34.17;;;10.90;99.90;;;;;;5097890;27;20059;-66
2021/09/22 06:11:52;;;;;;;278.77;40.28;;;11.00;99.90;;;;;;5109852;27;20684;-64
2021/09/22 06:14:18;;;;;;;200.68;38.05;;;11.00;99.90;;;;;;5096738;28;20107;-64
2021/09/22 06:16:44;;;;;;;210.27;41.05;;;11.00;99.90;;;;;;5109421;27;20098;-64
2021/09/22 06:19:09;;;;;;;265.38;43.20;;;11.00;99.90;;;;;;5102575;27;20428;-64
2021/09/22 06:21:37;;;;;;;296.40;43.78;;;11.10;99.90;;;;;;5110713;27;20048;-64
2021/09/22 06:24:03;;;;;;;400.75;48.83;;;11.20;99.90;;;;;;5096346;27;20051;-64
2021/09/22 06:26:29;;;;;;;427.88;48.60;;;11.20;99.90;;;;;;5110877;27;20128;-63
2021/09/22 06:28:55;;;;;;;394.27;48.67;;;11.20;99.90;;;;;;5100520;27;20039;-62
2021/09/22 06:31:21;;;;;;;311.80;45.33;;;11.30;99.90;;;;;;5118635;27;20259;-62
2021/09/22 06:33:47;;;;;;;364.35;51.50;;;11.30;99.90;;;;;;5097450;27;20062;-62
2021/09/22 06:36:13;;;;;;;416.05;53.25;;;11.40;99.90;;;;;;5107518;28;20075;-62
2021/09/22 06:38:39;;;;;;;408.20;52.85;;;11.40;99.90;;;;;;5087170;27;21035;-63
2021/09/22 06:41:05;;;;;;;239.85;44.03;;;11.50;99.90;;;;;;5120934;27;20485;-62
2021/09/22 06:43:31;;;;;;;291.25;49.97;;;11.50;99.90;;;;;;5091790;27;20055;-63
2021/09/22 06:45:57;;;;;;;245.63;45.88;;;11.60;99.90;;;;;;5116918;27;20051;-62
2021/09/22 06:48:23;;;;;;;129.60;40.08;;;11.70;99.90;;;;;;5085209;28;20476;-63
2021/09/22 06:50:49;;;;;;;315.48;51.03;;;11.70;99.90;;;;;;5103622;28;20074;-63
2021/09/22 06:53:14;;;;;;;334.65;48.80;;;11.80;99.90;;;;;;5085710;27;20097;-63
2021/09/22 06:55:40;;;;;;;367.52;52.97;;;11.80;99.90;;;;;;5118250;27;20098;-63
2021/09/22 06:58:06;;;;;;;362.50;51.33;;;11.80;99.90;;;;;;5097308;28;20079;-63
2021/09/22 07:00:35;;;;;;;237.65;46.80;;;11.80;99.90;;;;;;5115016;27;20093;-63
2021/09/22 07:03:01;;;;;;;271.60;48.65;;;11.90;99.90;;;;;;5095083;28;20062;-63
2021/09/22 07:05:27;;;;;;;273.02;46.58;;;12.00;99.90;;;;;;5104649;27;20043;-63
2021/09/22 07:07:52;;;;;;;113.45;38.63;;;12.00;99.90;;;;;;5083035;28;20588;-63
2021/09/22 07:10:18;;;;;;;282.48;48.58;;;12.00;99.90;;;;;;5098859;27;20039;-63
2021/09/22 07:12:45;;;;;;;227.63;47.28;;;12.00;99.90;;;;;;5092918;28;20056;-63
2021/09/22 07:15:11;;;;;;;166.30;42.80;;;12.10;99.90;;;;;;5094338;27;20054;-63
2021/09/22 07:17:37;;;;;;;128.48;42.58;;;12.10;99.90;;;;;;5095613;28;20071;-63
2021/09/22 07:20:05;;;;;;;207.52;45.95;;;12.10;99.90;;;;;;5091951;27;20040;-63
2021/09/22 07:22:31;;;;;;;201.27;46.33;;;12.20;99.90;;;;;;5097366;28;20148;-62
2021/09/22 07:24:56;;;;;;;221.32;48.55;;;12.20;99.90;;;;;;5097031;27;20138;-63
2021/09/22 07:27:22;;;;;;;195.25;46.65;;;12.30;99.90;;;;;;5100288;27;20040;-62
2021/09/22 07:29:48;;;;;;;233.68;48.88;;;12.30;99.90;;;;;;5103862;27;20051;-63
2021/09/22 07:32:14;;;;;;;211.20;46.90;;;12.40;99.90;;;;;;5101815;28;20158;-62
2021/09/22 07:34:40;;;;;;;158.90;43.78;;;12.40;99.90;;;;;;5098974;27;20054;-62
2021/09/22 07:37:09;;;;;;;104.88;42.15;;;12.50;99.90;;;;;;5093065;28;20120;-62
2021/09/22 07:39:36;;;;;;;140.13;44.08;;;12.60;99.90;;;;;;5092912;27;20075;-62
2021/09/22 07:42:03;;;;;;;162.07;46.08;;;12.60;99.90;;;;;;5093144;28;20053;-62
2021/09/22 07:44:29;;;;;;;159.93;45.53;;;12.60;99.90;;;;;;5092724;27;20085;-62
2021/09/22 07:46:54;;;;;;;92.70;39.58;;;12.70;99.90;;;;;;5089308;28;20040;-62
2021/09/22 07:49:20;;;;;;;85.88;40.03;;;12.70;99.90;;;;;;5084653;27;20051;-62
2021/09/22 07:51:46;;;;;;;89.60;39.17;;;12.80;99.90;;;;;;5092012;28;20124;-63
2021/09/22 07:54:12;;;;;;;92.88;40.70;;;12.80;99.90;;;;;;5082426;27;20056;-63
2021/09/22 07:56:38;;;;;;;94.85;41.65;;;12.80;99.90;;;;;;5107943;28;20055;-63
2021/09/22 07:59:03;;;;;;;87.18;40.25;;;12.90;99.90;;;;;;5089346;27;20058;-63
2021/09/22 08:01:29;;;;;;;98.32;40.85;;;13.00;99.90;;;;;;5102181;28;20386;-62
2021/09/22 08:03:55;;;;;;;77.47;37.53;;;13.10;99.90;;;;;;5086983;27;20091;-63
2021/09/22 08:06:23;;;;;;;98.53;40.75;;;13.10;99.90;;;;;;5080783;28;20180;-63
2021/09/22 08:08:48;;;;;;;80.28;38.00;;;13.10;99.90;;;;;;5087340;27;20048;-63
2021/09/22 08:11:14;;;;;;;74.53;37.08;;;13.10;99.90;;;;;;5098980;27;20036;-63
2021/09/22 08:13:40;;;;;;;78.88;39.33;;;13.30;99.90;;;;;;5074067;27;20044;-64
2021/09/22 08:16:06;;;;;;;97.05;42.15;;;13.40;99.90;;;;;;5104044;28;20113;-62
2021/09/22 08:18:32;;;;;;;87.57;41.83;;;13.30;99.90;;;;;;5087750;28;20047;-66
2021/09/22 08:20:57;;;;;;;102.03;45.17;;;13.30;99.90;;;;;;5109904;28;20126;-65
2021/09/22 08:23:23;;;;;;;79.93;38.03;;;13.30;99.90;;;;;;5095766;28;20069;-65
2021/09/22 08:25:50;;;;;;;95.20;44.28;;;13.40;99.90;;;;;;5100933;27;20054;-66
2021/09/22 08:28:15;;;;;;;103.07;46.75;;;13.40;99.90;;;;;;5087775;28;20044;-66
2021/09/22 08:30:41;;;;;;;91.07;43.00;;;13.50;99.90;;;;;;5094752;28;20108;-66
2021/09/22 08:33:07;;;;;;;93.45;46.72;;;13.60;99.90;;;;;;5085467;28;20043;-65
2021/09/22 08:35:33;;;;;;;96.88;46.55;;;13.70;99.90;;;;;;5104733;27;20075;-66
2021/09/22 08:38:01;;;;;;;91.20;45.15;;;13.70;99.90;;;;;;5094084;28;20547;-66
2021/09/22 08:40:27;;;;;;;86.20;43.83;;;13.80;99.90;;;;;;5116146;27;20086;-65
2021/09/22 08:42:53;;;;;;;85.68;44.85;;;13.90;99.90;;;;;;5097690;28;20048;-65
2021/09/22 08:45:19;;;;;;;87.30;45.45;;;13.90;99.90;;;;;;5095950;27;20074;-66
2021/09/22 08:47:46;;;;;;;71.00;42.38;;;13.90;99.90;;;;;;5097204;28;20040;-64
2021/09/22 08:50:15;;;;;;;75.28;42.35;;;14.10;99.90;;;;;;5101670;27;20043;-64
2021/09/22 08:52:44;;;;;;;64.03;37.07;;;14.20;99.90;;;;;;5096580;28;20047;-63
2021/09/22 08:55:11;;;;;;;66.40;40.65;;;14.30;99.90;;;;;;5096668;27;20296;-64
2021/09/22 08:57:38;;;;;;;69.43;42.67;;;14.40;99.90;;;;;;5088083;28;20397;-63
2021/09/22 09:00:08;;;;;;;75.80;45.00;;;14.40;99.90;;;;;;5086462;27;20378;-64
2021/09/22 09:02:47;;;;;;;70.95;43.42;;;14.50;99.90;;;;;;5098784;28;20083;-63
2021/09/22 09:05:18;;;;;;;66.35;42.58;;;14.60;99.90;;;;;;5095932;27;20059;-63
2021/09/22 09:07:48;;;;;;;66.28;41.90;;;14.60;99.90;;;;;;5084108;28;20056;-64
2021/09/22 09:10:14;;;;;;;74.95;47.38;;;14.60;99.90;;;;;;5116757;27;20055;-63
2021/09/22 09:12:40;;;;;;;64.88;42.45;;;14.70;99.90;;;;;;5101781;27;20217;-63
2021/09/22 09:15:14;;;;;;;66.03;45.13;;;14.80;99.90;;;;;;5102405;27;20088;-64
2021/09/22 09:17:46;;;;;;;64.65;42.83;;;14.90;99.90;;;;;;5087916;28;20048;-63
2021/09/22 09:20:24;;;;;;;63.60;41.65;;;15.00;99.90;;;;;;5088977;27;20057;-64
2021/09/22 09:23:12;;;;;;;57.20;40.50;;;15.10;99.90;;;;;;5093691;28;20273;-64
2021/09/22 09:26:03;;;;;;;66.70;45.53;;;15.10;99.90;;;;;;5101736;27;20107;-65
2021/09/22 09:28:32;;;;;;;68.40;43.60;;;15.20;99.90;;;;;;5090219;28;20055;-63
2021/09/22 09:31:06;;;;;;;56.80;39.50;;;15.30;99.90;;;;;;5102572;27;20076;-63
2021/09/22 09:33:41;;;;;;;57.35;39.92;;;15.40;99.90;;;;;;5095333;28;20046;-63
2021/09/22 09:36:14;;;;;;;64.43;43.75;;;15.50;99.90;;;;;;5087121;28;20063;-63
2021/09/22 09:38:39;;;;;;;57.25;42.35;;;15.60;99.90;;;;;;5093502;28;20079;-63
2021/09/22 09:41:05;;;;;;;53.88;41.40;;;15.70;99.90;;;;;;5100944;27;20048;-63
2021/09/22 09:43:31;;;;;;;57.05;43.55;;;15.90;99.90;;;;;;5080569;28;20409;-63
2021/09/22 09:45:56;;;;;;;55.75;41.53;;;16.00;99.90;;;;;;5110564;27;20057;-64
2021/09/22 09:48:22;;;;;;;50.97;40.03;;;16.00;99.90;;;;;;5128669;27;20048;-63
2021/09/22 09:50:54;;;;;;;56.50;40.63;;;16.10;99.90;;;;;;5099661;27;20439;-63
2021/09/22 09:53:31;;;;;;;51.42;38.80;;;16.20;99.90;;;;;;5094465;28;20036;-63
2021/09/22 09:56:00;;;;;;;49.53;37.90;;;16.40;99.90;;;;;;5112749;27;20471;-63
2021/09/22 09:58:43;;;;;;;49.40;38.58;;;16.40;99.90;;;;;;5086640;28;20036;-63
2021/09/22 10:01:08;;;;;;;49.53;38.05;;;16.50;99.90;;;;;;5099789;28;20057;-63
2021/09/22 10:03:34;;;;;;;46.63;35.95;;;16.60;99.90;;;;;;5096027;28;20044;-63
2021/09/22 10:06:00;;;;;;;46.75;35.17;;;16.70;99.90;;;;;;5107068;27;20085;-62
2021/09/22 10:08:28;;;;;;;44.55;34.85;;;16.80;99.90;;;;;;5096445;28;20044;-62
2021/09/22 10:10:55;;;;;;;40.10;31.45;;;16.90;99.90;;;;;;5097190;27;20923;-62
2021/09/22 10:13:22;;;;;;;39.88;29.67;;;17.00;99.90;;;;;;5092998;28;20043;-63
2021/09/22 10:15:49;;;;;;;40.83;31.10;;;17.20;99.90;;;;;;5102059;27;20052;-63
2021/09/22 10:18:17;;;;;;;39.80;29.98;;;17.30;99.90;;;;;;5092395;28;20059;-63
2021/09/22 10:20:45;;;;;;;37.17;29.13;;;17.40;99.90;;;;;;5095215;27;20639;-62
2021/09/22 10:23:13;;;;;;;37.28;27.33;;;17.40;99.90;;;;;;5099208;28;20039;-62
2021/09/22 10:25:40;;;;;;;30.55;22.85;;;17.40;99.90;;;;;;5098645;27;20057;-63
2021/09/22 10:28:08;;;;;;;21.92;16.27;;;17.50;99.90;;;;;;5093268;28;20594;-60
2021/09/22 10:30:47;;;;;;;26.50;17.23;;;17.50;99.90;;;;;;5102583;27;20079;-63
2021/09/22 10:33:42;;;;;;;24.63;17.75;;;17.40;99.90;;;;;;5094446;28;20099;-60
2021/09/22 10:36:08;;;;;;;20.13;16.70;;;17.60;99.90;;;;;;5117168;27;20047;-61
2021/09/22 10:38:40;;;;;;;21.35;14.77;;;17.90;99.90;;;;;;5093639;28;20109;-62
2021/09/22 10:41:07;;;;;;;22.95;16.45;;;18.00;99.90;;;;;;5118362;27;20059;-61
2021/09/22 10:43:45;;;;;;;20.95;15.07;;;18.10;99.90;;;;;;5099375;28;20042;-63
2021/09/22 10:46:18;;;;;;;18.60;13.88;;;18.20;99.90;;;;;;5119581;27;20507;-63
2021/09/22 10:48:56;;;;;;;19.77;13.88;;;18.10;99.90;;;;;;5096997;28;20071;-64
2021/09/22 10:51:42;;;;;;;20.05;14.98;;;18.10;99.90;;;;;;5063442;28;20051;-61
2021/09/22 10:54:20;;;;;;;20.08;16.02;;;18.20;99.90;;;;;;5082925;27;20054;-61
2021/09/22 10:56:58;;;;;;;19.45;14.50;;;18.40;99.90;;;;;;5109178;28;20070;-61
2021/09/22 10:59:41;;;;;;;18.98;14.70;;;18.40;99.90;;;;;;5080363;27;20047;-61
2021/09/22 11:02:11;;;;;;;17.02;13.10;;;18.60;99.90;;;;;;5108826;27;20040;-61
2021/09/22 11:04:58;;;;;;;16.58;10.18;;;18.70;99.90;;;;;;5090588;27;20058;-61
2021/09/22 11:07:54;;;;;;;20.98;11.10;;;18.60;99.90;;;;;;5064924;28;20049;-61
2021/09/22 11:10:46;;;;;;;16.58;11.10;;;18.50;99.90;;;;;;5091169;27;20108;-61
2021/09/22 11:13:23;;;;;;;17.88;11.75;;;18.60;99.90;;;;;;5096878;27;20044;-61
2021/09/22 11:15:51;;;;;;;17.88;11.20;;;18.70;99.90;;;;;;5098405;27;20055;-63
2021/09/22 11:18:18;;;;;;;19.42;11.13;;;18.90;99.90;;;;;;5096330;27;20074;-63
2021/09/22 11:20:52;;;;;;;15.60;11.18;;;19.00;99.90;;;;;;5095125;27;20051;-63
2021/09/22 11:23:21;;;;;;;18.42;12.82;;;19.20;99.90;;;;;;5094170;28;20115;-63
2021/09/22 11:25:47;;;;;;;15.95;11.07;;;19.20;99.90;;;;;;5101861;27;20100;-64
2021/09/22 11:28:12;;;;;;;14.98;9.95;;;19.20;99.90;;;;;;5091039;28;20096;-64
2021/09/22 11:30:40;;;;;;;16.20;10.73;;;19.20;99.90;;;;;;5109707;27;20055;-64
2021/09/22 11:33:06;;;;;;;14.80;11.43;;;19.40;99.90;;;;;;5099957;28;20051;-64
2021/09/22 11:35:32;;;;;;;16.42;12.20;;;19.30;99.90;;;;;;5095926;27;20062;-64
2021/09/22 11:37:59;;;;;;;15.35;9.80;;;19.30;99.90;;;;;;5081233;28;20037;-66
2021/09/22 11:40:34;;;;;;;15.60;9.68;;;19.40;99.90;;;;;;5089875;27;20074;-66
2021/09/22 11:43:18;;;;;;;13.25;8.50;;;19.50;99.90;;;;;;5093378;28;20032;-65
2021/09/22 11:45:46;;;;;;;11.55;7.10;;;19.70;99.90;;;;;;5095117;28;20048;-65
2021/09/22 11:48:15;;;;;;;16.50;9.13;;;19.90;99.90;;;;;;5095774;28;20218;-66
2021/09/22 11:50:43;;;;;;;13.77;8.85;;;20.00;99.90;;;;;;5095109;28;20048;-66
2021/09/22 11:53:12;;;;;;;12.93;8.30;;;20.10;99.90;;;;;;5094076;28;20054;-65
2021/09/22 11:55:42;;;;;;;12.38;9.82;;;20.30;99.90;;;;;;5103245;27;20553;-66
2021/09/22 11:58:13;;;;;;;14.40;8.15;;;20.40;99.90;;;;;;5098838;27;20105;-65
2021/09/22 12:00:41;;;;;;;12.35;7.70;;;20.50;99.90;;;;;;5100977;27;20135;-66
2021/09/22 12:03:09;;;;;;;16.10;9.80;;;20.60;99.90;;;;;;5094899;28;20143;-66
2021/09/22 12:05:35;;;;;;;14.05;8.52;;;20.30;99.90;;;;;;5108004;27;20095;-66
2021/09/22 12:08:01;;;;;;;12.27;8.02;;;20.30;99.90;;;;;;5082820;28;20266;-66
2021/09/22 12:10:27;;;;;;;16.75;9.20;;;20.40;99.90;;;;;;5097380;27;20141;-66
2021/09/22 12:13:01;;;;;;;17.63;10.25;;;20.40;99.90;;;;;;5094897;28;20048;-66
2021/09/22 12:15:27;;;;;;;16.75;10.27;;;20.20;99.90;;;;;;5092703;28;20127;-66
2021/09/22 12:17:53;;;;;;;13.18;9.63;;;20.20;99.90;;;;;;5097502;28;20134;-65
2021/09/22 12:20:20;;;;;;;13.43;10.00;;;20.40;99.90;;;;;;5087741;27;20603;-66
2021/09/22 12:22:58;;;;;;;14.57;8.63;;;20.60;99.90;;;;;;5102785;28;20048;-65
2021/09/22 12:25:24;;;;;;;14.85;9.20;;;20.80;99.90;;;;;;5081053;28;20047;-66
2021/09/22 12:27:50;;;;;;;15.52;8.48;;;21.00;99.90;;;;;;5107517;28;20090;-66